sensor_id;sensor_type;location;lat;lon;timestamp;P1;durP1;ratioP1;P2;durP2;ratioP2
15673;SDS011;7937;48.090;16.212;2022-07-31T00:00:40;4.50;;;3.20;;
15673;SDS011;7937;48.090;16.212;2022-07-31T00:03:42;3.93;;;3.60;;
15673;SDS011;7937;48.090;16.212;2022-07-31T00:06:44;4.03;;;3.63;;
15673;SDS011;7937;48.090;16.212;2022-07-31T00:09:46;3.40;;;3.10;;
15673;SDS011;7937;48.090;16.212;2022-07-31T00:12:54;4.37;;;3.27;;
15673;SDS011;7937;48.090;16.212;2022-07-31T00:15:56;4.60;;;3.60;;
15673;SDS011;7937;48.090;16.212;2022-07-31T00:18:58;6.60;;;3.87;;
15673;SDS011;7937;48.090;16.212;2022-07-31T00:22:00;5.37;;;3.33;;
15673;SDS011;7937;48.090;16.212;2022-07-31T00:25:03;4.43;;;3.63;;
15673;SDS011;7937;48.090;16.212;2022-07-31T00:28:05;3.87;;;3.43;;
15673;SDS011;7937;48.090;16.212;2022-07-31T00:31:07;4.40;;;3.33;;
15673;SDS011;7937;48.090;16.212;2022-07-31T00:34:09;4.23;;;3.00;;
15673;SDS011;7937;48.090;16.212;2022-07-31T00:37:12;3.73;;;3.20;;
15673;SDS011;7937;48.090;16.212;2022-07-31T00:40:16;3.87;;;3.47;;
15673;SDS011;7937;48.090;16.212;2022-07-31T00:43:18;3.60;;;3.30;;
15673;SDS011;7937;48.090;16.212;2022-07-31T00:46:20;4.07;;;3.40;;
15673;SDS011;7937;48.090;16.212;2022-07-31T00:49:23;5.27;;;3.50;;
15673;SDS011;7937;48.090;16.212;2022-07-31T00:52:25;5.20;;;3.37;;
15673;SDS011;7937;48.090;16.212;2022-07-31T00:55:27;3.60;;;3.27;;
15673;SDS011;7937;48.090;16.212;2022-07-31T00:58:29;3.30;;;3.00;;
15673;SDS011;7937;48.090;16.212;2022-07-31T01:05:09;4.97;;;3.90;;
15673;SDS011;7937;48.090;16.212;2022-07-31T01:08:11;4.17;;;3.57;;
15673;SDS011;7937;48.090;16.212;2022-07-31T01:11:18;3.57;;;3.27;;
15673;SDS011;7937;48.090;16.212;2022-07-31T01:14:23;3.20;;;2.90;;
15673;SDS011;7937;48.090;16.212;2022-07-31T01:17:30;3.77;;;3.17;;
15673;SDS011;7937;48.090;16.212;2022-07-31T01:20:33;3.93;;;3.37;;
15673;SDS011;7937;48.090;16.212;2022-07-31T01:27:29;4.07;;;3.30;;
15673;SDS011;7937;48.090;16.212;2022-07-31T01:31:01;3.60;;;3.30;;
15673;SDS011;7937;48.090;16.212;2022-07-31T01:34:32;3.50;;;3.20;;
15673;SDS011;7937;48.090;16.212;2022-07-31T01:37:47;3.93;;;3.23;;
15673;SDS011;7937;48.090;16.212;2022-07-31T01:40:56;4.17;;;3.30;;
15673;SDS011;7937;48.090;16.212;2022-07-31T01:44:00;4.43;;;3.43;;
15673;SDS011;7937;48.090;16.212;2022-07-31T01:47:06;3.73;;;2.83;;
15673;SDS011;7937;48.090;16.212;2022-07-31T01:50:09;3.50;;;3.00;;
15673;SDS011;7937;48.090;16.212;2022-07-31T01:53:33;3.60;;;3.30;;
15673;SDS011;7937;48.090;16.212;2022-07-31T01:56:37;4.57;;;3.43;;
15673;SDS011;7937;48.090;16.212;2022-07-31T01:59:41;4.57;;;4.13;;
15673;SDS011;7937;48.090;16.212;2022-07-31T02:03:13;4.60;;;3.37;;
15673;SDS011;7937;48.090;16.212;2022-07-31T02:06:17;3.73;;;3.43;;
15673;SDS011;7937;48.090;16.212;2022-07-31T02:09:21;3.90;;;3.60;;
15673;SDS011;7937;48.090;16.212;2022-07-31T02:12:26;4.03;;;3.63;;
15673;SDS011;7937;48.090;16.212;2022-07-31T02:15:35;4.07;;;3.77;;
15673;SDS011;7937;48.090;16.212;2022-07-31T02:18:39;3.23;;;3.00;;
15673;SDS011;7937;48.090;16.212;2022-07-31T02:21:54;3.67;;;3.20;;
15673;SDS011;7937;48.090;16.212;2022-07-31T02:24:56;4.20;;;3.80;;
15673;SDS011;7937;48.090;16.212;2022-07-31T02:27:59;4.23;;;3.80;;
15673;SDS011;7937;48.090;16.212;2022-07-31T02:31:09;4.10;;;3.80;;
15673;SDS011;7937;48.090;16.212;2022-07-31T02:34:16;4.60;;;4.17;;
15673;SDS011;7937;48.090;16.212;2022-07-31T02:37:21;6.03;;;4.17;;
15673;SDS011;7937;48.090;16.212;2022-07-31T02:40:24;3.93;;;3.63;;
15673;SDS011;7937;48.090;16.212;2022-07-31T02:43:27;3.77;;;3.43;;
15673;SDS011;7937;48.090;16.212;2022-07-31T02:46:37;4.40;;;4.00;;
15673;SDS011;7937;48.090;16.212;2022-07-31T02:49:40;4.50;;;4.10;;
15673;SDS011;7937;48.090;16.212;2022-07-31T02:52:43;5.10;;;3.77;;
15673;SDS011;7937;48.090;16.212;2022-07-31T02:55:46;4.73;;;3.77;;
15673;SDS011;7937;48.090;16.212;2022-07-31T02:58:49;4.60;;;4.20;;
15673;SDS011;7937;48.090;16.212;2022-07-31T03:01:56;4.07;;;3.60;;
15673;SDS011;7937;48.090;16.212;2022-07-31T03:05:00;5.07;;;4.10;;
15673;SDS011;7937;48.090;16.212;2022-07-31T03:08:02;5.00;;;4.13;;
15673;SDS011;7937;48.090;16.212;2022-07-31T03:11:09;5.33;;;4.83;;
15673;SDS011;7937;48.090;16.212;2022-07-31T03:14:12;5.70;;;4.40;;
15673;SDS011;7937;48.090;16.212;2022-07-31T03:17:14;4.57;;;4.20;;
15673;SDS011;7937;48.090;16.212;2022-07-31T03:20:17;6.30;;;4.43;;
15673;SDS011;7937;48.090;16.212;2022-07-31T03:23:20;4.40;;;4.00;;
15673;SDS011;7937;48.090;16.212;2022-07-31T03:26:30;4.60;;;4.20;;
15673;SDS011;7937;48.090;16.212;2022-07-31T03:29:37;5.03;;;4.53;;
15673;SDS011;7937;48.090;16.212;2022-07-31T03:32:44;4.97;;;4.10;;
15673;SDS011;7937;48.090;16.212;2022-07-31T03:35:47;4.13;;;3.80;;
15673;SDS011;7937;48.090;16.212;2022-07-31T03:38:50;6.33;;;3.97;;
15673;SDS011;7937;48.090;16.212;2022-07-31T03:42:06;5.37;;;4.87;;
15673;SDS011;7937;48.090;16.212;2022-07-31T03:45:19;4.70;;;4.30;;
15673;SDS011;7937;48.090;16.212;2022-07-31T03:48:22;5.40;;;4.00;;
15673;SDS011;7937;48.090;16.212;2022-07-31T03:51:25;5.67;;;3.87;;
15673;SDS011;7937;48.090;16.212;2022-07-31T03:54:27;11.07;;;4.23;;
15673;SDS011;7937;48.090;16.212;2022-07-31T03:57:36;6.37;;;4.17;;
15673;SDS011;7937;48.090;16.212;2022-07-31T04:00:38;4.57;;;4.17;;
15673;SDS011;7937;48.090;16.212;2022-07-31T04:03:43;4.57;;;4.17;;
15673;SDS011;7937;48.090;16.212;2022-07-31T04:07:00;4.10;;;3.80;;
15673;SDS011;7937;48.090;16.212;2022-07-31T04:10:02;5.90;;;3.90;;
15673;SDS011;7937;48.090;16.212;2022-07-31T04:13:05;4.47;;;4.07;;
15673;SDS011;7937;48.090;16.212;2022-07-31T04:16:07;4.07;;;3.77;;
15673;SDS011;7937;48.090;16.212;2022-07-31T04:19:09;3.80;;;3.40;;
15673;SDS011;7937;48.090;16.212;2022-07-31T04:22:11;4.40;;;4.00;;
15673;SDS011;7937;48.090;16.212;2022-07-31T04:25:13;3.80;;;3.23;;
15673;SDS011;7937;48.090;16.212;2022-07-31T04:28:33;4.13;;;3.83;;
15673;SDS011;7937;48.090;16.212;2022-07-31T04:31:35;3.87;;;3.40;;
15673;SDS011;7937;48.090;16.212;2022-07-31T04:34:40;4.03;;;3.67;;
15673;SDS011;7937;48.090;16.212;2022-07-31T04:37:42;4.00;;;3.70;;
15673;SDS011;7937;48.090;16.212;2022-07-31T04:40:49;3.83;;;3.53;;
15673;SDS011;7937;48.090;16.212;2022-07-31T04:43:52;5.63;;;3.93;;
15673;SDS011;7937;48.090;16.212;2022-07-31T04:46:58;4.23;;;3.83;;
15673;SDS011;7937;48.090;16.212;2022-07-31T04:50:03;5.60;;;3.27;;
15673;SDS011;7937;48.090;16.212;2022-07-31T04:53:06;4.63;;;4.23;;
15673;SDS011;7937;48.090;16.212;2022-07-31T04:56:12;4.20;;;3.80;;
15673;SDS011;7937;48.090;16.212;2022-07-31T04:59:33;5.50;;;3.87;;
15673;SDS011;7937;48.090;16.212;2022-07-31T05:02:55;4.00;;;3.67;;
15673;SDS011;7937;48.090;16.212;2022-07-31T05:06:07;4.47;;;3.70;;
15673;SDS011;7937;48.090;16.212;2022-07-31T05:09:14;5.00;;;4.00;;
15673;SDS011;7937;48.090;16.212;2022-07-31T05:12:28;5.23;;;3.93;;
15673;SDS011;7937;48.090;16.212;2022-07-31T05:15:30;4.90;;;4.10;;
15673;SDS011;7937;48.090;16.212;2022-07-31T05:18:33;4.07;;;3.67;;
15673;SDS011;7937;48.090;16.212;2022-07-31T05:21:58;5.17;;;4.07;;
15673;SDS011;7937;48.090;16.212;2022-07-31T05:25:15;4.53;;;4.03;;
15673;SDS011;7937;48.090;16.212;2022-07-31T05:28:18;5.33;;;4.40;;
15673;SDS011;7937;48.090;16.212;2022-07-31T05:31:30;4.40;;;3.83;;
15673;SDS011;7937;48.090;16.212;2022-07-31T05:34:32;4.30;;;3.90;;
15673;SDS011;7937;48.090;16.212;2022-07-31T05:37:34;5.30;;;4.00;;
15673;SDS011;7937;48.090;16.212;2022-07-31T05:40:38;5.10;;;3.80;;
15673;SDS011;7937;48.090;16.212;2022-07-31T05:44:12;4.13;;;3.80;;
15673;SDS011;7937;48.090;16.212;2022-07-31T05:47:18;4.37;;;3.97;;
15673;SDS011;7937;48.090;16.212;2022-07-31T05:50:21;5.37;;;3.53;;
15673;SDS011;7937;48.090;16.212;2022-07-31T05:53:24;4.70;;;4.07;;
15673;SDS011;7937;48.090;16.212;2022-07-31T05:56:45;5.30;;;4.00;;
15673;SDS011;7937;48.090;16.212;2022-07-31T05:59:51;4.10;;;3.70;;
15673;SDS011;7937;48.090;16.212;2022-07-31T06:02:53;4.40;;;4.00;;
15673;SDS011;7937;48.090;16.212;2022-07-31T06:06:17;4.80;;;3.57;;
15673;SDS011;7937;48.090;16.212;2022-07-31T06:09:19;4.23;;;3.50;;
15673;SDS011;7937;48.090;16.212;2022-07-31T06:12:21;6.20;;;3.17;;
15673;SDS011;7937;48.090;16.212;2022-07-31T06:15:23;3.50;;;3.20;;
15673;SDS011;7937;48.090;16.212;2022-07-31T06:18:25;3.47;;;3.17;;
15673;SDS011;7937;48.090;16.212;2022-07-31T06:21:27;5.20;;;3.10;;
15673;SDS011;7937;48.090;16.212;2022-07-31T06:24:31;7.60;;;3.30;;
15673;SDS011;7937;48.090;16.212;2022-07-31T06:27:35;3.13;;;2.83;;
15673;SDS011;7937;48.090;16.212;2022-07-31T06:30:39;2.90;;;2.70;;
15673;SDS011;7937;48.090;16.212;2022-07-31T06:33:41;4.60;;;3.53;;
15673;SDS011;7937;48.090;16.212;2022-07-31T06:36:50;3.00;;;2.77;;
15673;SDS011;7937;48.090;16.212;2022-07-31T06:39:55;4.63;;;3.00;;
15673;SDS011;7937;48.090;16.212;2022-07-31T06:43:17;5.63;;;2.80;;
15673;SDS011;7937;48.090;16.212;2022-07-31T06:46:38;4.87;;;2.77;;
15673;SDS011;7937;48.090;16.212;2022-07-31T06:50:08;2.67;;;2.47;;
15673;SDS011;7937;48.090;16.212;2022-07-31T06:53:12;3.93;;;2.60;;
15673;SDS011;7937;48.090;16.212;2022-07-31T06:56:15;4.07;;;2.70;;
15673;SDS011;7937;48.090;16.212;2022-07-31T06:59:17;2.63;;;2.43;;
15673;SDS011;7937;48.090;16.212;2022-07-31T07:02:39;3.00;;;2.37;;
15673;SDS011;7937;48.090;16.212;2022-07-31T07:05:41;4.27;;;2.57;;
15673;SDS011;7937;48.090;16.212;2022-07-31T07:08:47;3.33;;;2.50;;
15673;SDS011;7937;48.090;16.212;2022-07-31T07:11:51;3.17;;;2.87;;
15673;SDS011;7937;48.090;16.212;2022-07-31T07:14:55;2.87;;;2.33;;
15673;SDS011;7937;48.090;16.212;2022-07-31T07:17:58;3.20;;;2.73;;
15673;SDS011;7937;48.090;16.212;2022-07-31T07:21:17;2.70;;;2.50;;
15673;SDS011;7937;48.090;16.212;2022-07-31T07:24:20;5.40;;;3.03;;
15673;SDS011;7937;48.090;16.212;2022-07-31T07:27:31;4.70;;;2.93;;
15673;SDS011;7937;48.090;16.212;2022-07-31T07:30:35;3.33;;;3.00;;
15673;SDS011;7937;48.090;16.212;2022-07-31T07:33:38;3.00;;;2.70;;
15673;SDS011;7937;48.090;16.212;2022-07-31T07:36:54;3.07;;;2.60;;
15673;SDS011;7937;48.090;16.212;2022-07-31T07:40:02;5.07;;;2.87;;
15673;SDS011;7937;48.090;16.212;2022-07-31T07:43:04;3.33;;;2.87;;
15673;SDS011;7937;48.090;16.212;2022-07-31T07:46:07;3.50;;;2.70;;
15673;SDS011;7937;48.090;16.212;2022-07-31T07:49:12;2.63;;;2.43;;
15673;SDS011;7937;48.090;16.212;2022-07-31T07:52:24;3.53;;;2.70;;
15673;SDS011;7937;48.090;16.212;2022-07-31T07:55:35;4.57;;;2.90;;
15673;SDS011;7937;48.090;16.212;2022-07-31T07:58:57;4.77;;;3.00;;
15673;SDS011;7937;48.090;16.212;2022-07-31T08:02:31;5.97;;;2.90;;
15673;SDS011;7937;48.090;16.212;2022-07-31T08:05:33;3.90;;;3.00;;
15673;SDS011;7937;48.090;16.212;2022-07-31T08:08:36;4.63;;;3.10;;
15673;SDS011;7937;48.090;16.212;2022-07-31T08:11:57;4.03;;;3.10;;
15673;SDS011;7937;48.090;16.212;2022-07-31T08:15:29;3.13;;;2.83;;
15673;SDS011;7937;48.090;16.212;2022-07-31T08:18:49;4.30;;;3.03;;
15673;SDS011;7937;48.090;16.212;2022-07-31T08:21:52;4.33;;;3.23;;
15673;SDS011;7937;48.090;16.212;2022-07-31T08:24:54;5.13;;;2.87;;
15673;SDS011;7937;48.090;16.212;2022-07-31T08:27:58;5.83;;;3.00;;
15673;SDS011;7937;48.090;16.212;2022-07-31T08:31:00;4.27;;;2.90;;
15673;SDS011;7937;48.090;16.212;2022-07-31T08:34:04;4.30;;;2.90;;
15673;SDS011;7937;48.090;16.212;2022-07-31T08:37:08;5.17;;;2.80;;
15673;SDS011;7937;48.090;16.212;2022-07-31T08:40:31;3.00;;;2.67;;
15673;SDS011;7937;48.090;16.212;2022-07-31T08:43:44;3.97;;;2.50;;
15673;SDS011;7937;48.090;16.212;2022-07-31T08:47:06;4.43;;;2.50;;
15673;SDS011;7937;48.090;16.212;2022-07-31T08:50:11;2.80;;;2.60;;
15673;SDS011;7937;48.090;16.212;2022-07-31T08:53:15;3.53;;;2.73;;
15673;SDS011;7937;48.090;16.212;2022-07-31T08:56:28;2.97;;;2.73;;
15673;SDS011;7937;48.090;16.212;2022-07-31T08:59:32;3.53;;;3.23;;
15673;SDS011;7937;48.090;16.212;2022-07-31T09:02:36;3.80;;;3.10;;
15673;SDS011;7937;48.090;16.212;2022-07-31T09:05:59;3.73;;;3.00;;
15673;SDS011;7937;48.090;16.212;2022-07-31T09:09:01;3.57;;;3.27;;
15673;SDS011;7937;48.090;16.212;2022-07-31T09:12:04;5.33;;;3.40;;
15673;SDS011;7937;48.090;16.212;2022-07-31T09:15:35;3.83;;;2.90;;
15673;SDS011;7937;48.090;16.212;2022-07-31T09:18:40;3.10;;;2.80;;
15673;SDS011;7937;48.090;16.212;2022-07-31T09:21:45;3.17;;;2.87;;
15673;SDS011;7937;48.090;16.212;2022-07-31T09:24:47;3.50;;;3.10;;
15673;SDS011;7937;48.090;16.212;2022-07-31T09:27:59;3.70;;;3.30;;
15673;SDS011;7937;48.090;16.212;2022-07-31T09:31:08;3.33;;;2.90;;
15673;SDS011;7937;48.090;16.212;2022-07-31T09:34:50;4.40;;;3.20;;
15673;SDS011;7937;48.090;16.212;2022-07-31T09:37:52;4.00;;;3.17;;
15673;SDS011;7937;48.090;16.212;2022-07-31T09:41:32;4.23;;;3.60;;
15673;SDS011;7937;48.090;16.212;2022-07-31T09:45:19;2.87;;;2.40;;
15673;SDS011;7937;48.090;16.212;2022-07-31T09:48:23;4.20;;;2.97;;
15673;SDS011;7937;48.090;16.212;2022-07-31T09:51:36;3.42;;;2.85;;
15673;SDS011;7937;48.090;16.212;2022-07-31T09:55:12;4.57;;;3.00;;
15673;SDS011;7937;48.090;16.212;2022-07-31T09:58:22;2.78;;;2.58;;
15673;SDS011;7937;48.090;16.212;2022-07-31T10:01:25;6.10;;;2.85;;
15673;SDS011;7937;48.090;16.212;2022-07-31T10:04:28;2.60;;;2.40;;
15673;SDS011;7937;48.090;16.212;2022-07-31T10:07:30;4.57;;;2.97;;
15673;SDS011;7937;48.090;16.212;2022-07-31T10:10:45;3.47;;;2.85;;
15673;SDS011;7937;48.090;16.212;2022-07-31T10:14:01;4.13;;;2.55;;
15673;SDS011;7937;48.090;16.212;2022-07-31T10:17:05;3.65;;;2.20;;
15673;SDS011;7937;48.090;16.212;2022-07-31T10:20:32;2.72;;;2.00;;
15673;SDS011;7937;48.090;16.212;2022-07-31T10:23:54;3.45;;;1.80;;
15673;SDS011;7937;48.090;16.212;2022-07-31T10:26:59;1.95;;;1.75;;
15673;SDS011;7937;48.090;16.212;2022-07-31T10:30:12;2.10;;;2.00;;
15673;SDS011;7937;48.090;16.212;2022-07-31T10:33:18;2.67;;;2.00;;
15673;SDS011;7937;48.090;16.212;2022-07-31T10:37:02;2.28;;;1.70;;
15673;SDS011;7937;48.090;16.212;2022-07-31T10:40:49;2.70;;;1.85;;
15673;SDS011;7937;48.090;16.212;2022-07-31T10:44:02;3.42;;;2.00;;
15673;SDS011;7937;48.090;16.212;2022-07-31T10:47:30;1.75;;;1.63;;
15673;SDS011;7937;48.090;16.212;2022-07-31T10:51:02;4.38;;;1.77;;
15673;SDS011;7937;48.090;16.212;2022-07-31T10:54:36;3.75;;;1.90;;
15673;SDS011;7937;48.090;16.212;2022-07-31T10:58:11;2.92;;;1.60;;
15673;SDS011;7937;48.090;16.212;2022-07-31T11:01:20;1.95;;;1.80;;
15673;SDS011;7937;48.090;16.212;2022-07-31T11:04:45;2.55;;;1.67;;
15673;SDS011;7937;48.090;16.212;2022-07-31T11:08:05;1.70;;;1.52;;
15673;SDS011;7937;48.090;16.212;2022-07-31T11:11:32;2.03;;;1.85;;
15673;SDS011;7937;48.090;16.212;2022-07-31T11:14:58;2.85;;;1.92;;
15673;SDS011;7937;48.090;16.212;2022-07-31T11:18:17;5.00;;;2.03;;
15673;SDS011;7937;48.090;16.212;2022-07-31T11:21:37;1.73;;;1.50;;
15673;SDS011;7937;48.090;16.212;2022-07-31T11:24:41;2.55;;;2.10;;
15673;SDS011;7937;48.090;16.212;2022-07-31T11:27:43;3.67;;;1.67;;
15673;SDS011;7937;48.090;16.212;2022-07-31T11:30:46;1.63;;;1.50;;
15673;SDS011;7937;48.090;16.212;2022-07-31T11:33:49;4.70;;;1.90;;
15673;SDS011;7937;48.090;16.212;2022-07-31T11:36:51;4.93;;;1.90;;
15673;SDS011;7937;48.090;16.212;2022-07-31T11:39:55;1.67;;;1.50;;
15673;SDS011;7937;48.090;16.212;2022-07-31T11:43:00;1.67;;;1.55;;
15673;SDS011;7937;48.090;16.212;2022-07-31T11:46:26;2.95;;;1.95;;
15673;SDS011;7937;48.090;16.212;2022-07-31T11:49:30;2.08;;;1.67;;
15673;SDS011;7937;48.090;16.212;2022-07-31T11:52:48;3.20;;;1.75;;
15673;SDS011;7937;48.090;16.212;2022-07-31T11:55:52;2.42;;;1.48;;
15673;SDS011;7937;48.090;16.212;2022-07-31T11:58:56;3.20;;;1.83;;
15673;SDS011;7937;48.090;16.212;2022-07-31T12:02:02;3.38;;;1.60;;
15673;SDS011;7937;48.090;16.212;2022-07-31T12:05:10;2.40;;;1.85;;
15673;SDS011;7937;48.090;16.212;2022-07-31T12:08:14;2.78;;;1.55;;
15673;SDS011;7937;48.090;16.212;2022-07-31T12:11:18;4.07;;;1.85;;
15673;SDS011;7937;48.090;16.212;2022-07-31T12:17:31;4.85;;;1.92;;
15673;SDS011;7937;48.090;16.212;2022-07-31T12:20:33;2.13;;;1.70;;
15673;SDS011;7937;48.090;16.212;2022-07-31T12:26:53;2.08;;;1.98;;
15673;SDS011;7937;48.090;16.212;2022-07-31T12:29:59;3.58;;;2.38;;
15673;SDS011;7937;48.090;16.212;2022-07-31T12:33:12;2.30;;;2.15;;
15673;SDS011;7937;48.090;16.212;2022-07-31T12:36:15;3.10;;;2.30;;
15673;SDS011;7937;48.090;16.212;2022-07-31T12:39:18;3.30;;;2.53;;
15673;SDS011;7937;48.090;16.212;2022-07-31T12:42:24;2.60;;;2.40;;
15673;SDS011;7937;48.090;16.212;2022-07-31T12:45:35;2.72;;;2.40;;
15673;SDS011;7937;48.090;16.212;2022-07-31T12:48:38;3.92;;;2.83;;
15673;SDS011;7937;48.090;16.212;2022-07-31T12:51:46;3.28;;;2.25;;
15673;SDS011;7937;48.090;16.212;2022-07-31T12:54:49;3.67;;;2.10;;
15673;SDS011;7937;48.090;16.212;2022-07-31T12:57:51;2.88;;;2.47;;
15673;SDS011;7937;48.090;16.212;2022-07-31T13:00:53;4.65;;;2.30;;
15673;SDS011;7937;48.090;16.212;2022-07-31T13:03:57;2.85;;;2.53;;
15673;SDS011;7937;48.090;16.212;2022-07-31T13:06:59;2.58;;;2.40;;
15673;SDS011;7937;48.090;16.212;2022-07-31T13:10:03;2.88;;;2.35;;
15673;SDS011;7937;48.090;16.212;2022-07-31T13:13:22;3.13;;;2.53;;
15673;SDS011;7937;48.090;16.212;2022-07-31T13:16:26;2.88;;;2.15;;
15673;SDS011;7937;48.090;16.212;2022-07-31T13:19:28;2.70;;;2.50;;
15673;SDS011;7937;48.090;16.212;2022-07-31T13:22:31;2.38;;;2.13;;
15673;SDS011;7937;48.090;16.212;2022-07-31T13:25:33;2.95;;;2.35;;
15673;SDS011;7937;48.090;16.212;2022-07-31T13:28:35;2.72;;;2.45;;
15673;SDS011;7937;48.090;16.212;2022-07-31T13:31:37;5.00;;;2.70;;
15673;SDS011;7937;48.090;16.212;2022-07-31T13:34:40;2.10;;;2.00;;
15673;SDS011;7937;48.090;16.212;2022-07-31T13:37:42;2.33;;;2.17;;
15673;SDS011;7937;48.090;16.212;2022-07-31T13:40:44;2.22;;;1.90;;
15673;SDS011;7937;48.090;16.212;2022-07-31T13:44:07;3.28;;;2.40;;
15673;SDS011;7937;48.090;16.212;2022-07-31T13:47:10;1.85;;;1.75;;
15673;SDS011;7937;48.090;16.212;2022-07-31T13:50:12;3.80;;;2.38;;
15673;SDS011;7937;48.090;16.212;2022-07-31T13:53:14;2.38;;;2.17;;
15673;SDS011;7937;48.090;16.212;2022-07-31T13:56:16;2.38;;;2.00;;
15673;SDS011;7937;48.090;16.212;2022-07-31T13:59:40;2.33;;;2.08;;
15673;SDS011;7937;48.090;16.212;2022-07-31T14:02:42;2.67;;;2.35;;
15673;SDS011;7937;48.090;16.212;2022-07-31T14:05:47;2.53;;;2.13;;
15673;SDS011;7937;48.090;16.212;2022-07-31T14:08:49;5.70;;;2.28;;
15673;SDS011;7937;48.090;16.212;2022-07-31T14:11:51;4.32;;;2.05;;
15673;SDS011;7937;48.090;16.212;2022-07-31T14:14:56;2.35;;;2.15;;
15673;SDS011;7937;48.090;16.212;2022-07-31T14:17:58;2.30;;;2.13;;
15673;SDS011;7937;48.090;16.212;2022-07-31T14:21:06;2.25;;;1.90;;
15673;SDS011;7937;48.090;16.212;2022-07-31T14:24:09;2.30;;;2.10;;
15673;SDS011;7937;48.090;16.212;2022-07-31T14:27:11;4.32;;;2.20;;
15673;SDS011;7937;48.090;16.212;2022-07-31T14:30:13;2.45;;;2.22;;
15673;SDS011;7937;48.090;16.212;2022-07-31T14:33:20;2.72;;;2.00;;
15673;SDS011;7937;48.090;16.212;2022-07-31T14:36:22;3.13;;;2.10;;
15673;SDS011;7937;48.090;16.212;2022-07-31T14:39:24;3.47;;;2.35;;
15673;SDS011;7937;48.090;16.212;2022-07-31T14:42:26;3.00;;;2.17;;
15673;SDS011;7937;48.090;16.212;2022-07-31T14:45:28;2.60;;;2.17;;
15673;SDS011;7937;48.090;16.212;2022-07-31T14:48:31;2.65;;;2.10;;
15673;SDS011;7937;48.090;16.212;2022-07-31T14:51:33;4.05;;;2.20;;
15673;SDS011;7937;48.090;16.212;2022-07-31T14:54:35;2.30;;;2.10;;
15673;SDS011;7937;48.090;16.212;2022-07-31T14:57:37;2.75;;;2.50;;
15673;SDS011;7937;48.090;16.212;2022-07-31T15:00:39;2.55;;;2.10;;
15673;SDS011;7937;48.090;16.212;2022-07-31T15:03:41;2.65;;;2.20;;
15673;SDS011;7937;48.090;16.212;2022-07-31T15:06:43;3.60;;;2.00;;
15673;SDS011;7937;48.090;16.212;2022-07-31T15:10:03;3.42;;;2.47;;
15673;SDS011;7937;48.090;16.212;2022-07-31T15:13:05;2.75;;;2.47;;
15673;SDS011;7937;48.090;16.212;2022-07-31T15:16:07;2.67;;;2.47;;
15673;SDS011;7937;48.090;16.212;2022-07-31T15:19:10;3.22;;;2.40;;
15673;SDS011;7937;48.090;16.212;2022-07-31T15:22:13;3.42;;;2.53;;
15673;SDS011;7937;48.090;16.212;2022-07-31T15:25:19;2.65;;;2.42;;
15673;SDS011;7937;48.090;16.212;2022-07-31T15:28:22;2.13;;;1.98;;
15673;SDS011;7937;48.090;16.212;2022-07-31T15:31:24;3.05;;;2.10;;
15673;SDS011;7937;48.090;16.212;2022-07-31T15:34:26;2.40;;;2.20;;
15673;SDS011;7937;48.090;16.212;2022-07-31T15:37:28;2.97;;;2.42;;
15673;SDS011;7937;48.090;16.212;2022-07-31T15:40:30;4.13;;;2.30;;
15673;SDS011;7937;48.090;16.212;2022-07-31T15:43:34;3.63;;;2.50;;
15673;SDS011;7937;48.090;16.212;2022-07-31T15:46:41;3.30;;;2.33;;
15673;SDS011;7937;48.090;16.212;2022-07-31T15:49:43;2.85;;;2.47;;
15673;SDS011;7937;48.090;16.212;2022-07-31T15:52:47;4.15;;;2.20;;
15673;SDS011;7937;48.090;16.212;2022-07-31T15:55:49;2.25;;;2.05;;
15673;SDS011;7937;48.090;16.212;2022-07-31T15:58:52;2.50;;;2.03;;
15673;SDS011;7937;48.090;16.212;2022-07-31T16:01:54;4.18;;;2.50;;
15673;SDS011;7937;48.090;16.212;2022-07-31T16:04:56;1.77;;;1.67;;
15673;SDS011;7937;48.090;16.212;2022-07-31T16:08:12;2.15;;;1.92;;
15673;SDS011;7937;48.090;16.212;2022-07-31T16:11:34;2.80;;;2.13;;
15673;SDS011;7937;48.090;16.212;2022-07-31T16:14:56;2.90;;;2.10;;
15673;SDS011;7937;48.090;16.212;2022-07-31T16:17:59;3.30;;;2.15;;
15673;SDS011;7937;48.090;16.212;2022-07-31T16:21:02;2.22;;;1.70;;
15673;SDS011;7937;48.090;16.212;2022-07-31T16:24:04;2.30;;;2.10;;
15673;SDS011;7937;48.090;16.212;2022-07-31T16:27:11;2.97;;;1.80;;
15673;SDS011;7937;48.090;16.212;2022-07-31T16:30:31;2.20;;;2.00;;
15673;SDS011;7937;48.090;16.212;2022-07-31T16:33:40;2.60;;;1.98;;
15673;SDS011;7937;48.090;16.212;2022-07-31T16:36:54;1.65;;;1.52;;
15673;SDS011;7937;48.090;16.212;2022-07-31T16:39:59;2.08;;;1.90;;
15673;SDS011;7937;48.090;16.212;2022-07-31T16:43:05;2.50;;;1.80;;
15673;SDS011;7937;48.090;16.212;2022-07-31T16:46:28;2.22;;;2.03;;
15673;SDS011;7937;48.090;16.212;2022-07-31T16:49:31;2.70;;;1.90;;
15673;SDS011;7937;48.090;16.212;2022-07-31T16:52:37;3.17;;;1.80;;
15673;SDS011;7937;48.090;16.212;2022-07-31T16:55:40;3.50;;;1.60;;
15673;SDS011;7937;48.090;16.212;2022-07-31T16:59:02;1.90;;;1.80;;
15673;SDS011;7937;48.090;16.212;2022-07-31T17:02:05;3.15;;;1.80;;
15673;SDS011;7937;48.090;16.212;2022-07-31T17:05:10;1.98;;;1.88;;
15673;SDS011;7937;48.090;16.212;2022-07-31T17:08:14;2.40;;;1.63;;
15673;SDS011;7937;48.090;16.212;2022-07-31T17:11:17;3.38;;;1.92;;
15673;SDS011;7937;48.090;16.212;2022-07-31T17:14:20;2.97;;;1.80;;
15673;SDS011;7937;48.090;16.212;2022-07-31T17:17:24;3.92;;;1.80;;
15673;SDS011;7937;48.090;16.212;2022-07-31T17:20:26;3.80;;;1.85;;
15673;SDS011;7937;48.090;16.212;2022-07-31T17:23:29;2.47;;;1.77;;
15673;SDS011;7937;48.090;16.212;2022-07-31T17:26:44;2.15;;;1.95;;
15673;SDS011;7937;48.090;16.212;2022-07-31T17:29:47;2.60;;;1.83;;
15673;SDS011;7937;48.090;16.212;2022-07-31T17:32:49;5.28;;;1.80;;
15673;SDS011;7937;48.090;16.212;2022-07-31T17:35:51;4.03;;;1.80;;
15673;SDS011;7937;48.090;16.212;2022-07-31T17:38:54;2.38;;;1.67;;
15673;SDS011;7937;48.090;16.212;2022-07-31T17:41:57;2.97;;;2.13;;
15673;SDS011;7937;48.090;16.212;2022-07-31T17:45:00;2.30;;;2.10;;
15673;SDS011;7937;48.090;16.212;2022-07-31T17:48:04;3.03;;;1.83;;
15673;SDS011;7937;48.090;16.212;2022-07-31T17:51:07;1.85;;;1.75;;
15673;SDS011;7937;48.090;16.212;2022-07-31T17:54:10;1.80;;;1.70;;
15673;SDS011;7937;48.090;16.212;2022-07-31T17:57:12;1.85;;;1.75;;
15673;SDS011;7937;48.090;16.212;2022-07-31T18:00:16;2.78;;;1.70;;
15673;SDS011;7937;48.090;16.212;2022-07-31T18:03:18;2.15;;;1.60;;
15673;SDS011;7937;48.090;16.212;2022-07-31T18:06:20;3.83;;;1.80;;
15673;SDS011;7937;48.090;16.212;2022-07-31T18:09:22;3.13;;;1.80;;
15673;SDS011;7937;48.090;16.212;2022-07-31T18:12:25;3.75;;;2.10;;
15673;SDS011;7937;48.090;16.212;2022-07-31T18:15:27;2.40;;;2.00;;
15673;SDS011;7937;48.090;16.212;2022-07-31T18:18:36;3.00;;;1.80;;
15673;SDS011;7937;48.090;16.212;2022-07-31T18:21:38;2.40;;;1.85;;
15673;SDS011;7937;48.090;16.212;2022-07-31T18:24:40;3.20;;;2.22;;
15673;SDS011;7937;48.090;16.212;2022-07-31T18:27:42;2.97;;;2.08;;
15673;SDS011;7937;48.090;16.212;2022-07-31T18:30:45;1.98;;;1.70;;
15673;SDS011;7937;48.090;16.212;2022-07-31T18:33:47;2.33;;;1.90;;
15673;SDS011;7937;48.090;16.212;2022-07-31T18:36:49;2.40;;;1.80;;
15673;SDS011;7937;48.090;16.212;2022-07-31T18:39:55;3.58;;;1.85;;
15673;SDS011;7937;48.090;16.212;2022-07-31T18:42:58;1.90;;;1.77;;
15673;SDS011;7937;48.090;16.212;2022-07-31T18:46:00;3.30;;;2.17;;
15673;SDS011;7937;48.090;16.212;2022-07-31T18:49:02;6.27;;;2.20;;
15673;SDS011;7937;48.090;16.212;2022-07-31T18:52:06;2.33;;;2.13;;
15673;SDS011;7937;48.090;16.212;2022-07-31T18:55:09;2.27;;;2.03;;
15673;SDS011;7937;48.090;16.212;2022-07-31T18:58:11;2.57;;;2.30;;
15673;SDS011;7937;48.090;16.212;2022-07-31T19:01:14;3.57;;;2.70;;
15673;SDS011;7937;48.090;16.212;2022-07-31T19:04:16;4.23;;;2.60;;